createdAt,value
2018-08-04T07:03:13.435Z,77.80
2018-08-04T07:06:03.587Z,77.30
2018-08-04T07:08:49.134Z,77.00
2018-08-04T07:11:24.190Z,77.50
2018-08-04T07:13:54.280Z,77.90
2018-08-04T07:16:23.709Z,77.20
2018-08-04T07:18:52.967Z,76.90
2018-08-04T07:21:22.623Z,78.90
2018-08-04T07:23:52.031Z,78.90
2018-08-04T07:26:21.373Z,78.90
2018-08-04T07:28:51.199Z,78.80
2018-08-04T07:31:20.650Z,79.20
2018-08-04T07:33:50.262Z,79.80
2018-08-04T07:36:19.951Z,79.80
2018-08-04T07:38:49.244Z,79.00
2018-08-04T07:41:18.726Z,79.50
2018-08-04T07:43:48.440Z,79.80
2018-08-04T07:46:19.710Z,80.00
2018-08-04T07:48:51.717Z,79.40
2018-08-04T07:51:23.096Z,78.80
2018-08-04T07:53:55.145Z,79.10
2018-08-04T07:56:25.635Z,79.60
2018-08-04T07:58:58.767Z,79.50
2018-08-04T08:01:28.190Z,79.80
2018-08-04T08:03:57.919Z,79.60
2018-08-04T08:06:27.917Z,80.10
2018-08-04T08:08:57.207Z,80.00
2018-08-04T08:11:26.908Z,77.50
2018-08-04T08:13:57.100Z,78.20
2018-08-04T08:16:26.668Z,78.30
2018-08-04T08:18:56.407Z,76.90
2018-08-04T08:21:26.090Z,76.40
2018-08-04T08:23:55.654Z,75.50
2018-08-04T08:26:25.262Z,76.10
2018-08-04T08:28:54.903Z,76.80
2018-08-04T08:31:24.241Z,77.20
2018-08-04T08:33:53.773Z,77.90
2018-08-04T08:36:23.330Z,77.50
2018-08-04T08:38:52.767Z,78.10
2018-08-04T08:41:22.460Z,79.00
2018-08-04T08:43:54.254Z,78.50
2018-08-04T08:46:23.832Z,78.50
2018-08-04T08:48:53.347Z,78.50
2018-08-04T08:51:23.001Z,78.10
2018-08-04T08:53:52.779Z,79.00
2018-08-04T08:56:22.126Z,78.90
2018-08-04T08:58:52.120Z,78.40
2018-08-04T09:01:22.166Z,77.50
2018-08-04T09:03:51.547Z,77.30
2018-08-04T09:06:21.155Z,77.60
2018-08-04T09:08:50.674Z,76.90
2018-08-04T09:11:20.019Z,76.50
2018-08-04T09:13:49.517Z,76.50
2018-08-04T09:16:19.685Z,76.50
2018-08-04T09:18:49.044Z,76.40
2018-08-04T09:21:18.897Z,76.70
2018-08-04T09:23:48.213Z,77.70
2018-08-04T09:26:17.602Z,76.10
2018-08-04T09:28:47.021Z,77.40
2018-08-04T09:31:16.551Z,76.70
2018-08-04T09:33:46.163Z,75.10
2018-08-04T09:36:16.443Z,75.10
2018-08-04T09:38:46.007Z,72.50
2018-08-04T09:41:15.403Z,74.40
2018-08-04T09:43:45.281Z,74.70
2018-08-04T09:46:14.850Z,74.20
2018-08-04T09:48:44.278Z,73.70
2018-08-04T09:51:13.955Z,73.60
2018-08-04T09:53:43.286Z,73.60
2018-08-04T09:56:12.838Z,72.60
2018-08-04T09:58:42.514Z,73.60
2018-08-04T10:01:17.186Z,72.40
2018-08-04T10:03:47.098Z,72.70
2018-08-04T10:06:16.405Z,73.80
2018-08-04T10:08:46.024Z,70.50
2018-08-04T10:11:16.097Z,69.70
2018-08-04T10:13:45.495Z,70.20
2018-08-04T10:16:14.966Z,68.90
2018-08-04T10:18:44.685Z,71.10
2018-08-04T10:21:14.272Z,68.40
2018-08-04T10:23:43.595Z,70.70
2018-08-04T10:26:13.411Z,71.90
2018-08-04T10:28:42.912Z,67.90
2018-08-04T10:31:12.431Z,66.50
2018-08-04T10:33:42.028Z,67.90
2018-08-04T10:36:11.544Z,67.40
2018-08-04T10:38:40.994Z,68.70
2018-08-04T10:41:10.751Z,70.50
2018-08-04T10:43:40.093Z,72.10
2018-08-04T10:46:09.694Z,71.60
2018-08-04T10:48:39.598Z,67.60
2018-08-04T10:51:09.095Z,67.20
2018-08-04T10:53:38.872Z,69.00
2018-08-04T10:56:08.610Z,69.80
2018-08-04T10:58:38.303Z,70.30
2018-08-04T11:01:08.867Z,70.40
2018-08-04T11:03:38.803Z,70.60
2018-08-04T11:06:08.210Z,72.70
2018-08-04T11:08:37.881Z,71.60
2018-08-04T11:11:08.419Z,71.50
2018-08-04T11:13:38.324Z,70.50
2018-08-04T11:16:08.191Z,69.60
2018-08-04T11:18:38.680Z,66.60
2018-08-04T11:21:08.393Z,66.40
2018-08-04T11:23:38.378Z,69.00
2018-08-04T11:26:08.648Z,69.20
2018-08-04T11:28:38.194Z,68.00
2018-08-04T11:31:08.374Z,69.50
2018-08-04T11:33:38.988Z,69.10
2018-08-04T11:36:08.468Z,66.20
2018-08-04T11:38:41.143Z,66.90
2018-08-04T11:41:10.859Z,68.80
2018-08-04T11:43:40.357Z,64.90
2018-08-04T11:46:09.980Z,65.30
2018-08-04T11:48:39.578Z,64.60
2018-08-04T11:51:08.979Z,64.20
2018-08-04T11:53:38.800Z,67.00
2018-08-04T11:56:08.443Z,62.80
2018-08-04T11:58:38.178Z,65.50
2018-08-04T12:01:08.430Z,63.50
2018-08-04T12:03:38.288Z,63.10
2018-08-04T12:06:07.970Z,63.60
2018-08-04T12:08:37.934Z,63.00
2018-08-04T12:11:07.789Z,60.80
2018-08-04T12:13:37.540Z,59.80
2018-08-04T12:16:07.812Z,60.00
2018-08-04T12:18:37.541Z,58.80
2018-08-04T12:21:07.595Z,58.30
2018-08-04T12:23:37.767Z,59.50
2018-08-04T12:26:07.532Z,57.90
2018-08-04T12:28:37.542Z,60.00
2018-08-04T12:31:08.783Z,58.50
2018-08-04T12:33:38.376Z,59.00
2018-08-04T12:36:08.156Z,59.70
2018-08-04T12:38:38.273Z,58.00
2018-08-04T12:41:07.992Z,58.80
2018-08-04T12:43:37.659Z,61.30
2018-08-04T12:46:10.346Z,62.40
2018-08-04T12:48:39.924Z,61.70
2018-08-04T12:51:09.285Z,58.50
2018-08-04T12:53:39.185Z,58.80
2018-08-04T12:56:09.161Z,59.50
2018-08-04T12:58:38.469Z,59.80
2018-08-04T13:01:08.874Z,59.80
2018-08-04T13:03:38.352Z,60.40
2018-08-04T13:06:08.189Z,60.40
2018-08-04T13:08:38.439Z,60.40
2018-08-04T13:11:08.486Z,61.60
2018-08-04T13:13:38.268Z,59.80
2018-08-04T13:16:08.769Z,59.50
2018-08-04T13:18:38.340Z,58.60
2018-08-04T13:21:08.164Z,57.50
2018-08-04T13:23:38.488Z,58.10
2018-08-04T13:26:08.885Z,58.20
2018-08-04T13:28:38.242Z,57.90
2018-08-04T13:31:08.028Z,58.50
2018-08-04T13:33:38.051Z,57.30
2018-08-04T13:36:07.923Z,58.00
2018-08-04T13:38:37.762Z,57.80
2018-08-04T13:41:07.885Z,57.40
2018-08-04T13:43:37.759Z,57.80
2018-08-04T13:46:07.951Z,56.70
2018-08-04T13:48:37.881Z,56.50
2018-08-04T13:51:09.744Z,57.50
2018-08-04T13:53:39.379Z,59.00
2018-08-04T13:56:09.024Z,56.90
2018-08-04T13:58:38.890Z,56.60
2018-08-04T14:01:08.612Z,56.50
2018-08-04T14:03:38.259Z,55.80
2018-08-04T14:06:08.060Z,55.10
2018-08-04T14:08:38.051Z,56.40
2018-08-04T14:11:08.569Z,56.70
2018-08-04T14:13:38.760Z,55.80
2018-08-04T14:16:08.508Z,55.40
2018-08-04T14:18:38.237Z,56.10
2018-08-04T14:21:08.590Z,55.10
2018-08-04T14:23:38.368Z,55.00
2018-08-04T14:26:08.933Z,55.90
2018-08-04T14:28:38.956Z,58.00
2018-08-04T14:31:08.554Z,56.30
2018-08-04T14:33:38.279Z,54.80
2018-08-04T14:36:08.464Z,54.70
2018-08-04T14:38:38.390Z,56.40
2018-08-04T14:41:08.151Z,55.50
2018-08-04T14:43:38.693Z,55.60
2018-08-04T14:46:08.760Z,53.40
2018-08-04T14:48:38.523Z,52.20
2018-08-04T14:51:08.538Z,51.70
2018-08-04T14:53:38.244Z,53.00
2018-08-04T14:56:08.053Z,52.00
2018-08-04T14:58:38.998Z,52.20
2018-08-04T15:01:09.402Z,51.80
2018-08-04T15:03:38.813Z,51.50
2018-08-04T15:06:09.599Z,51.50
2018-08-04T15:08:40.040Z,50.80
2018-08-04T15:11:09.726Z,50.00
2018-08-04T15:13:39.445Z,49.40
2018-08-04T15:16:09.046Z,49.20
2018-08-04T15:18:39.162Z,49.20
2018-08-04T15:21:08.720Z,49.20
2018-08-04T15:23:38.300Z,50.30
2018-08-04T15:26:08.780Z,50.60
2018-08-04T15:28:39.588Z,49.70
2018-08-04T15:31:09.101Z,51.50
2018-08-04T15:33:38.871Z,51.80
2018-08-04T15:36:08.587Z,50.60
2018-08-04T15:38:38.279Z,49.80
2018-08-04T15:41:08.966Z,48.90
2018-08-04T15:43:39.780Z,49.00
2018-08-04T15:46:10.136Z,49.80
2018-08-04T15:48:41.487Z,49.10
2018-08-04T15:51:11.606Z,48.30
2018-08-04T15:53:40.956Z,50.00
2018-08-04T15:56:12.244Z,50.80
2018-08-04T15:58:42.922Z,50.70
2018-08-04T16:01:13.341Z,51.10
2018-08-04T16:03:42.944Z,49.90
2018-08-04T16:06:13.322Z,51.20
2018-08-04T16:08:43.061Z,50.80
2018-08-04T16:11:12.706Z,50.50
2018-08-04T16:13:44.393Z,51.00
2018-08-04T16:16:14.640Z,49.90
2018-08-04T16:18:47.068Z,51.20
2018-08-04T16:21:16.768Z,50.50
2018-08-04T16:23:47.203Z,50.40
2018-08-04T16:26:16.759Z,50.50
2018-08-04T18:29:17.114Z,73.70
2018-08-04T18:31:46.400Z,73.40
2018-08-04T18:34:15.797Z,72.30
2018-08-04T18:36:45.668Z,72.70
2018-08-04T18:39:15.156Z,72.10
2018-08-04T18:41:44.444Z,72.10
2018-08-04T18:44:14.303Z,72.00
2018-08-04T18:46:43.775Z,71.80
2018-08-04T18:49:13.126Z,72.60
2018-08-04T18:51:42.682Z,72.00
2018-08-04T18:54:12.142Z,72.90
2018-08-04T18:56:41.516Z,72.80
2018-08-04T18:59:11.453Z,72.40
2018-08-04T19:01:41.131Z,72.60
2018-08-04T19:04:10.610Z,72.60
2018-08-04T19:06:40.307Z,73.20
2018-08-04T19:09:10.994Z,72.80
2018-08-04T19:11:40.410Z,72.70
2018-08-04T19:14:11.085Z,72.80
2018-08-04T19:16:40.395Z,72.90
2018-08-04T19:19:09.782Z,73.10
2018-08-04T19:21:39.448Z,73.40
2018-08-04T19:24:10.697Z,72.80
2018-08-04T19:26:40.981Z,72.70
2018-08-04T19:29:10.801Z,72.90
2018-08-04T19:31:40.142Z,73.10
2018-08-04T19:34:11.170Z,72.90
2018-08-04T19:36:40.528Z,73.00
2018-08-04T19:39:10.977Z,73.00
2018-08-04T19:41:41.004Z,73.10
2018-08-04T19:44:10.633Z,72.30
2018-08-04T19:46:40.298Z,72.30
2018-08-04T19:49:09.854Z,72.80
2018-08-04T19:51:39.213Z,72.90
2018-08-04T19:54:08.738Z,72.50
